الصفحة الرئيسية
METAR-TAF:

METAR-TAF

مطار :

Lamar Municipal Airport

Lamar, كولورادو, الولايات المتحدة

دائرة عرض: 38-04-21N, خط طول: 102-41-12W, ارتفاع: 1128 متر

مراقبة الطقس الحالي

تاريخ ووقت الإصدار 13 دقيقة قبل الساعة 18:53UTC
ريح 4 عقدة من الشرق/الشمال الشرقي
درجة الحرارة 26°درجة مئوية
الرطوبة 54%
ضغط 1017 hPa
الرؤية: 16.1 كم
غيوم مفككة على ارتفاع 3200 قدم

METAR: KLAA 141853Z AUTO 06004KT 10SM BKN032 26/16 A3003 RMK AO2 SLP123 T02560161

زمن: 13:06 (19:06 UTC)


TAF: مفقودة

أرصاد الطقس والتوقعات من أكثر من 4000 مطار (تقارير الطقس للمطار METAR والتنبؤ بالطقس بالمطارTAF).

المحطات المتاحة هي النقط الصفراء والحمراء على الخريطة.

حرك المؤشر فوق النقطة لمعرفة اسم المحطة.

ثم انقر لمعرفة أرصاد وتوقعات الطقس.

لتغيير الخارطة: اضغط على الأزرار الخضراء مع رمز الصليب الأسود للتكبير. على الزر الأخضر مع شرطة للتصغير، أو على الأسهم الخضراء للخرائط المجاورة.


METAR-TAF: